createdAt,value
2022-11-01T00:00:41.946Z,18.70
2022-11-01T00:03:44.106Z,18.60
2022-11-01T00:06:46.269Z,18.60
2022-11-01T00:09:48.386Z,18.50
2022-11-01T00:12:50.558Z,18.60
2022-11-01T00:15:53.675Z,18.60
2022-11-01T00:18:56.195Z,18.60
2022-11-01T00:21:58.401Z,18.50
2022-11-01T00:25:00.747Z,18.50
2022-11-01T00:28:03.288Z,18.50
2022-11-01T00:31:08.898Z,18.50
2022-11-01T00:34:15.169Z,18.50
2022-11-01T00:37:17.463Z,18.50
2022-11-01T00:40:19.576Z,18.40
2022-11-01T00:43:21.990Z,18.40
2022-11-01T00:46:24.280Z,18.40
2022-11-01T00:49:26.305Z,18.40
2022-11-01T00:52:28.609Z,18.40
2022-11-01T00:55:30.854Z,18.40
2022-11-01T00:58:37.529Z,18.40
2022-11-01T01:01:39.868Z,18.40
2022-11-01T01:04:43.406Z,18.30
2022-11-01T01:07:45.433Z,18.30
2022-11-01T01:10:47.935Z,18.30
2022-11-01T01:13:50.262Z,18.30
2022-11-01T01:16:52.399Z,18.20
2022-11-01T01:19:54.613Z,18.20
2022-11-01T01:22:57.063Z,18.20
2022-11-01T01:25:59.353Z,18.20
2022-11-01T01:29:01.590Z,18.20
2022-11-01T01:32:03.874Z,18.20
2022-11-01T01:35:06.510Z,18.10
2022-11-01T01:38:08.633Z,18.00
2022-11-01T01:41:29.421Z,18.00
2022-11-01T01:44:47.495Z,18.00
2022-11-01T01:47:52.668Z,18.00
2022-11-01T01:51:02.701Z,18.10
2022-11-01T01:54:05.213Z,18.10
2022-11-01T01:57:09.257Z,18.10
2022-11-01T02:00:12.445Z,18.00
2022-11-01T02:03:15.617Z,18.00
2022-11-01T02:06:21.850Z,18.00
2022-11-01T02:09:26.899Z,18.00
2022-11-01T02:12:36.375Z,18.00
2022-11-01T02:15:57.783Z,18.00
2022-11-01T02:19:40.468Z,18.00
2022-11-01T02:23:16.521Z,18.00
2022-11-01T02:26:48.984Z,18.10
2022-11-01T02:30:14.075Z,18.10
2022-11-01T02:33:36.141Z,18.10
2022-11-01T02:36:47.036Z,18.10
2022-11-01T02:39:53.598Z,18.00
2022-11-01T02:43:02.947Z,17.90
2022-11-01T02:46:26.559Z,17.90
2022-11-01T02:49:42.912Z,17.90
2022-11-01T02:52:45.440Z,18.00
2022-11-01T02:55:47.567Z,17.90
2022-11-01T02:58:51.719Z,17.90
2022-11-01T03:02:07.545Z,17.90
2022-11-01T03:05:57.437Z,17.80
2022-11-01T03:09:10.188Z,17.80
2022-11-01T03:12:21.016Z,17.80
2022-11-01T03:15:31.103Z,17.80
2022-11-01T03:18:36.348Z,17.80
2022-11-01T03:21:42.465Z,17.80
2022-11-01T03:24:55.948Z,17.80
2022-11-01T03:28:02.853Z,17.90
2022-11-01T03:31:11.439Z,17.80
2022-11-01T03:34:17.374Z,17.80
2022-11-01T03:37:20.931Z,17.80
2022-11-01T03:40:25.993Z,17.80
2022-11-01T03:43:31.482Z,17.80
2022-11-01T03:46:33.840Z,17.80
2022-11-01T03:49:36.122Z,17.80
2022-11-01T03:52:38.261Z,17.80
2022-11-01T03:55:40.380Z,17.80
2022-11-01T03:58:42.647Z,17.80
2022-11-01T04:01:45.035Z,17.90
2022-11-01T04:04:47.234Z,17.80
2022-11-01T04:07:49.749Z,17.80
2022-11-01T04:10:51.771Z,17.80
2022-11-01T04:14:14.967Z,17.80
2022-11-01T04:17:35.440Z,17.80
2022-11-01T04:20:38.811Z,17.80
2022-11-01T04:23:42.475Z,17.80
2022-11-01T04:26:44.794Z,17.70
2022-11-01T04:29:47.057Z,17.70
2022-11-01T04:32:50.092Z,17.80
2022-11-01T04:35:52.315Z,17.80
2022-11-01T04:38:56.234Z,17.80
2022-11-01T04:41:58.322Z,17.80
2022-11-01T04:45:00.385Z,17.80
2022-11-01T04:48:08.485Z,17.70
2022-11-01T04:51:11.168Z,17.80
2022-11-01T04:54:13.282Z,17.70
2022-11-01T04:57:24.877Z,17.70
2022-11-01T05:00:27.416Z,17.60
2022-11-01T05:03:31.375Z,17.40
2022-11-01T05:06:33.615Z,17.40
2022-11-01T05:09:36.588Z,17.30
2022-11-01T05:12:38.871Z,17.20
2022-11-01T05:15:59.755Z,17.20
2022-11-01T05:19:09.846Z,17.10
2022-11-01T05:22:12.218Z,17.00
2022-11-01T05:25:14.335Z,17.00
2022-11-01T05:28:16.514Z,17.00
2022-11-01T05:31:18.966Z,16.90
2022-11-01T05:34:21.278Z,16.90
2022-11-01T05:37:27.952Z,16.90
2022-11-01T05:40:31.136Z,16.90
2022-11-01T05:43:33.509Z,16.80
2022-11-01T05:46:44.325Z,16.80
2022-11-01T05:49:46.345Z,16.70
2022-11-01T05:52:50.112Z,16.70
2022-11-01T05:55:56.777Z,16.70
2022-11-01T05:58:59.120Z,16.70
2022-11-01T06:02:01.352Z,16.60
2022-11-01T06:05:03.719Z,16.60
2022-11-01T06:08:06.582Z,16.60
2022-11-01T06:11:08.771Z,16.60
2022-11-01T06:14:11.341Z,16.60
2022-11-01T06:17:13.733Z,16.50
2022-11-01T06:20:15.910Z,16.50
2022-11-01T06:23:18.053Z,16.50
2022-11-01T06:26:20.835Z,16.40
2022-11-01T06:29:23.047Z,16.40
2022-11-01T06:32:25.176Z,16.40
2022-11-01T06:35:28.405Z,16.40
2022-11-01T06:38:31.022Z,16.40
2022-11-01T06:41:33.175Z,16.40
2022-11-01T06:44:35.471Z,16.30
2022-11-01T06:50:40.625Z,16.20
2022-11-01T06:53:42.783Z,16.20
2022-11-01T06:56:48.008Z,16.20
2022-11-01T06:59:50.251Z,16.20
2022-11-01T07:03:02.998Z,16.20
2022-11-01T07:06:05.644Z,16.20
2022-11-01T07:09:07.912Z,16.20
2022-11-01T07:12:10.043Z,16.10
2022-11-01T07:15:12.364Z,16.10
2022-11-01T07:18:20.708Z,16.20
2022-11-01T07:21:23.206Z,16.20
2022-11-01T07:24:28.032Z,16.30
2022-11-01T07:27:30.424Z,16.80
2022-11-01T07:30:32.673Z,17.50
2022-11-01T07:33:35.141Z,18.20
2022-11-01T07:36:37.870Z,19.00
2022-11-01T07:39:39.955Z,19.80
2022-11-01T07:42:43.329Z,20.50
2022-11-01T07:45:45.350Z,21.20
2022-11-01T07:48:52.004Z,22.00
2022-11-01T07:51:54.883Z,22.90
2022-11-01T07:54:59.125Z,23.40
2022-11-01T07:58:02.665Z,24.10
2022-11-01T08:01:05.014Z,24.60
2022-11-01T08:04:07.299Z,25.40
2022-11-01T08:07:09.488Z,25.90
2022-11-01T08:10:12.575Z,26.50
2022-11-01T08:13:16.898Z,27.00
2022-11-01T08:16:22.003Z,27.40
2022-11-01T08:19:24.047Z,27.60
2022-11-01T08:22:26.327Z,28.50
2022-11-01T08:25:28.385Z,29.10
2022-11-01T08:28:30.875Z,29.80
2022-11-01T08:31:33.153Z,30.90
2022-11-01T08:34:35.558Z,31.60
2022-11-01T08:37:38.166Z,32.00
2022-11-01T08:40:40.561Z,32.30
2022-11-01T08:43:42.682Z,32.50
2022-11-01T08:46:45.396Z,32.70
2022-11-01T08:49:47.460Z,33.30
2022-11-01T08:52:50.340Z,33.80
2022-11-01T08:55:58.304Z,33.90
2022-11-01T08:59:00.439Z,33.90
2022-11-01T09:02:02.675Z,34.20
2022-11-01T09:05:06.848Z,34.40
2022-11-01T09:08:09.132Z,34.30
2022-11-01T09:11:11.136Z,34.70
2022-11-01T09:14:13.410Z,34.20
2022-11-01T09:17:15.699Z,34.30
2022-11-01T09:20:17.804Z,34.80
2022-11-01T09:23:19.895Z,34.60
2022-11-01T09:26:22.004Z,35.20
2022-11-01T09:29:24.045Z,35.50
2022-11-01T09:32:29.165Z,35.70
2022-11-01T09:35:31.563Z,35.40
2022-11-01T09:38:35.629Z,34.80
2022-11-01T09:41:47.396Z,35.10
2022-11-01T09:44:54.419Z,34.90
2022-11-01T09:47:58.230Z,34.90
2022-11-01T09:51:10.072Z,35.30
2022-11-01T09:54:13.454Z,35.60
2022-11-01T09:57:24.361Z,36.00
2022-11-01T10:00:33.220Z,36.10
2022-11-01T10:03:54.207Z,35.70
2022-11-01T10:07:11.627Z,35.90
2022-11-01T10:10:26.916Z,36.30
2022-11-01T10:14:05.333Z,36.00
2022-11-01T10:17:14.776Z,36.50
2022-11-01T10:20:19.080Z,36.30
2022-11-01T10:23:50.456Z,36.70
2022-11-01T10:27:01.596Z,37.00
2022-11-01T10:30:11.576Z,35.70
2022-11-01T10:33:38.315Z,35.40
2022-11-01T10:36:45.069Z,35.30
2022-11-01T10:40:06.438Z,35.00
2022-11-01T10:43:15.403Z,35.30
2022-11-01T10:46:24.815Z,35.40
2022-11-01T10:53:04.144Z,34.60
2022-11-01T10:56:10.124Z,34.20
2022-11-01T10:59:18.833Z,33.50
2022-11-01T11:02:38.364Z,33.60
2022-11-01T11:05:41.389Z,33.50
2022-11-01T11:08:48.988Z,33.50
2022-11-01T11:11:51.686Z,33.60
2022-11-01T11:15:02.066Z,33.60
2022-11-01T11:18:09.201Z,33.50
2022-11-01T11:21:13.591Z,33.30
2022-11-01T11:24:20.530Z,33.50
2022-11-01T11:27:26.028Z,32.00
2022-11-01T11:30:32.706Z,30.20
2022-11-01T11:33:34.946Z,28.20
2022-11-01T11:36:42.045Z,27.10
2022-11-01T11:39:59.416Z,27.20
2022-11-01T11:43:24.179Z,26.90
2022-11-01T11:46:26.946Z,26.60
2022-11-01T11:49:29.741Z,25.80
2022-11-01T11:52:38.505Z,25.20
2022-11-01T11:56:09.622Z,25.00
2022-11-01T11:59:32.417Z,24.90
2022-11-01T12:02:37.725Z,24.50
2022-11-01T12:06:09.409Z,23.90
2022-11-01T12:09:37.327Z,23.50
2022-11-01T12:12:40.788Z,23.20
2022-11-01T12:15:42.849Z,23.10
2022-11-01T12:18:47.711Z,22.80
2022-11-01T12:21:50.603Z,22.40
2022-11-01T12:24:55.618Z,22.40
2022-11-01T12:28:06.548Z,22.30
2022-11-01T12:31:17.499Z,22.10
2022-11-01T12:34:32.306Z,21.80
2022-11-01T12:37:39.938Z,21.70
2022-11-01T12:40:45.781Z,21.50
2022-11-01T12:44:16.904Z,21.50
2022-11-01T12:47:22.325Z,21.50
2022-11-01T12:50:37.167Z,21.40
2022-11-01T12:53:44.151Z,21.30
2022-11-01T12:56:46.436Z,21.30
2022-11-01T12:59:54.305Z,21.50
2022-11-01T13:03:07.161Z,21.40
2022-11-01T13:06:32.196Z,21.50
2022-11-01T13:10:03.120Z,21.40
2022-11-01T13:13:31.444Z,21.40
2022-11-01T13:16:43.516Z,21.30
2022-11-01T13:20:05.576Z,21.30
2022-11-01T13:23:20.132Z,21.10
2022-11-01T13:26:33.170Z,21.00
2022-11-01T13:29:48.898Z,21.00
2022-11-01T13:33:12.450Z,21.20
2022-11-01T13:36:47.505Z,21.20
2022-11-01T13:40:01.916Z,21.30
2022-11-01T13:43:15.402Z,21.30
2022-11-01T13:46:35.795Z,21.30
2022-11-01T13:50:19.369Z,21.10
2022-11-01T13:53:35.040Z,21.20
2022-11-01T13:56:42.759Z,21.10
2022-11-01T13:59:55.744Z,21.20
2022-11-01T14:02:59.297Z,21.30
2022-11-01T14:06:11.305Z,21.10
2022-11-01T14:09:28.057Z,21.10
2022-11-01T14:13:00.138Z,21.10
2022-11-01T14:16:04.224Z,21.20
2022-11-01T14:19:20.157Z,21.20
2022-11-01T14:22:27.365Z,21.30
2022-11-01T14:25:31.814Z,21.20
2022-11-01T14:28:33.750Z,21.30
2022-11-01T14:31:37.022Z,21.00
2022-11-01T14:34:41.393Z,21.00
2022-11-01T14:37:51.511Z,21.00
2022-11-01T14:40:59.439Z,20.90
2022-11-01T14:44:18.275Z,20.90
2022-11-01T14:47:34.749Z,20.90
2022-11-01T14:50:50.506Z,20.90
2022-11-01T14:54:30.595Z,21.00
2022-11-01T14:57:34.983Z,20.90
2022-11-01T15:00:37.450Z,20.90
2022-11-01T15:03:39.959Z,20.80
2022-11-01T15:06:43.439Z,20.70
2022-11-01T15:09:58.323Z,20.60
2022-11-01T15:13:02.432Z,20.40
2022-11-01T15:16:13.288Z,20.30
2022-11-01T15:19:20.428Z,20.40
2022-11-01T15:22:27.201Z,20.40
2022-11-01T15:25:29.888Z,20.30
2022-11-01T15:28:45.802Z,20.40
2022-11-01T15:31:56.187Z,20.10
2022-11-01T15:35:03.671Z,20.20
2022-11-01T15:38:20.860Z,20.40
2022-11-01T15:41:32.411Z,20.40
2022-11-01T15:44:35.577Z,20.30
2022-11-01T15:47:41.935Z,20.20
2022-11-01T15:50:50.410Z,20.10
2022-11-01T15:54:01.452Z,20.10
2022-11-01T15:57:13.295Z,20.00
2022-11-01T16:00:23.959Z,20.00
2022-11-01T16:03:34.707Z,20.10
2022-11-01T16:06:43.030Z,20.00
2022-11-01T16:09:50.818Z,20.00
2022-11-01T16:12:54.319Z,20.10
2022-11-01T16:16:10.913Z,20.10
2022-11-01T16:19:42.523Z,20.10
2022-11-01T16:22:47.301Z,20.00
2022-11-01T16:26:04.668Z,20.00
2022-11-01T16:29:06.720Z,19.90
2022-11-01T16:32:19.260Z,19.90
2022-11-01T16:35:35.540Z,19.70
2022-11-01T16:38:43.800Z,19.50
2022-11-01T16:41:47.886Z,19.40
2022-11-01T16:44:55.166Z,19.40
2022-11-01T16:47:58.540Z,19.40
2022-11-01T16:51:03.171Z,19.40
2022-11-01T16:54:05.342Z,19.40
2022-11-01T16:57:22.687Z,19.30
2022-11-01T17:00:25.108Z,19.30
2022-11-01T17:03:28.031Z,19.20
2022-11-01T17:06:38.522Z,19.10
2022-11-01T17:09:41.173Z,19.10
2022-11-01T17:12:43.673Z,19.10
2022-11-01T17:15:49.446Z,19.00
2022-11-01T17:18:55.405Z,19.00
2022-11-01T17:22:04.287Z,19.10
2022-11-01T17:25:06.928Z,19.10
2022-11-01T17:28:09.147Z,19.00
2022-11-01T17:31:14.084Z,18.90
2022-11-01T17:34:16.667Z,18.90
2022-11-01T17:37:20.868Z,18.80
2022-11-01T17:40:27.080Z,18.70
2022-11-01T17:43:29.938Z,18.60
2022-11-01T17:46:32.374Z,18.50
2022-11-01T17:49:34.453Z,18.50
2022-11-01T17:52:36.446Z,18.40
2022-11-01T17:55:39.277Z,18.40
2022-11-01T17:58:41.328Z,18.40
2022-11-01T18:01:44.190Z,18.30
2022-11-01T18:04:46.553Z,18.20
2022-11-01T18:07:50.621Z,18.20
2022-11-01T18:11:31.070Z,18.10
2022-11-01T18:14:56.200Z,18.20
2022-11-01T18:18:13.365Z,18.20
2022-11-01T18:21:32.292Z,18.10
2022-11-01T18:24:43.809Z,18.10
2022-11-01T18:27:45.876Z,18.00
2022-11-01T18:30:56.031Z,18.00
2022-11-01T18:34:24.962Z,18.00
2022-11-01T18:38:05.913Z,17.90
2022-11-01T18:41:13.196Z,17.90
2022-11-01T18:44:15.675Z,17.80
2022-11-01T18:47:24.648Z,17.70
2022-11-01T18:50:27.406Z,17.70
2022-11-01T18:53:29.992Z,17.60
2022-11-01T18:56:33.757Z,17.60
2022-11-01T18:59:39.263Z,17.50
2022-11-01T19:02:41.466Z,17.50
2022-11-01T19:05:43.596Z,17.50
2022-11-01T19:08:58.372Z,17.30
2022-11-01T19:12:01.668Z,17.30
2022-11-01T19:15:30.683Z,17.30
2022-11-01T19:18:32.846Z,17.30
2022-11-01T19:21:35.884Z,17.30
2022-11-01T19:24:40.089Z,17.30
2022-11-01T19:27:42.525Z,17.10
2022-11-01T19:30:50.794Z,17.10
2022-11-01T19:33:58.169Z,17.10
2022-11-01T19:37:05.192Z,17.10
2022-11-01T19:40:26.553Z,17.10
2022-11-01T19:43:30.430Z,17.00
2022-11-01T19:46:33.475Z,17.00
2022-11-01T19:49:40.255Z,17.00
2022-11-01T19:52:47.353Z,17.00
2022-11-01T19:56:03.986Z,16.90
2022-11-01T19:59:12.575Z,16.90
2022-11-01T20:02:22.777Z,16.80
2022-11-01T20:05:34.666Z,16.80
2022-11-01T20:08:37.310Z,16.60
2022-11-01T20:11:39.414Z,16.70
2022-11-01T20:14:41.511Z,16.70
2022-11-01T20:20:48.023Z,16.50
2022-11-01T20:23:51.440Z,16.50
2022-11-01T20:26:54.240Z,16.50
2022-11-01T20:29:56.281Z,16.50
2022-11-01T20:33:01.491Z,16.40
2022-11-01T20:36:10.838Z,16.50
2022-11-01T20:39:15.643Z,16.40
2022-11-01T20:42:18.469Z,16.40
2022-11-01T20:45:21.014Z,16.40
2022-11-01T20:48:23.547Z,16.40
2022-11-01T20:51:25.586Z,16.50
2022-11-01T20:54:27.552Z,16.50
2022-11-01T20:57:29.831Z,16.50
2022-11-01T21:00:31.972Z,16.40
2022-11-01T21:03:34.353Z,16.40
2022-11-01T21:06:37.019Z,16.40
2022-11-01T21:09:45.855Z,16.40
2022-11-01T21:12:48.822Z,16.30
2022-11-01T21:15:52.310Z,16.20
2022-11-01T21:19:04.295Z,16.30
2022-11-01T21:22:14.807Z,16.30
2022-11-01T21:25:22.777Z,16.30
2022-11-01T21:28:31.280Z,16.30
2022-11-01T21:31:34.973Z,16.20
2022-11-01T21:34:36.960Z,16.20
2022-11-01T21:37:39.547Z,16.20
2022-11-01T21:40:42.921Z,16.30
2022-11-01T21:43:45.480Z,16.10
2022-11-01T21:46:51.727Z,16.10
2022-11-01T21:49:54.701Z,16.10
2022-11-01T21:52:56.731Z,16.00
2022-11-01T21:55:59.015Z,16.10
2022-11-01T21:59:01.034Z,16.00
2022-11-01T22:02:04.586Z,16.00
2022-11-01T22:05:07.131Z,16.10
2022-11-01T22:08:09.191Z,16.10
2022-11-01T22:11:11.656Z,16.10
2022-11-01T22:14:13.716Z,16.20
2022-11-01T22:17:16.022Z,16.10
2022-11-01T22:20:18.162Z,16.00
2022-11-01T22:23:20.388Z,16.10
2022-11-01T22:26:22.955Z,16.10
2022-11-01T22:29:25.918Z,16.10
2022-11-01T22:32:28.143Z,16.10
2022-11-01T22:35:30.253Z,16.10
2022-11-01T22:38:40.336Z,16.00
2022-11-01T22:41:43.061Z,16.00
2022-11-01T22:44:50.848Z,16.00
2022-11-01T22:47:52.923Z,16.00
2022-11-01T22:50:55.086Z,16.00
2022-11-01T22:53:59.646Z,16.00
2022-11-01T22:57:03.272Z,16.00
2022-11-01T23:00:28.674Z,16.00
2022-11-01T23:03:40.894Z,16.00
2022-11-01T23:06:45.847Z,16.00
2022-11-01T23:09:52.803Z,16.00
2022-11-01T23:13:44.524Z,16.00
2022-11-01T23:16:46.550Z,16.00
2022-11-01T23:19:55.783Z,16.00
2022-11-01T23:23:05.087Z,15.90
2022-11-01T23:26:12.869Z,15.90
2022-11-01T23:29:15.048Z,15.90
2022-11-01T23:32:20.610Z,15.90
2022-11-01T23:35:26.698Z,15.80
2022-11-01T23:38:31.963Z,15.70
2022-11-01T23:41:39.590Z,15.70
2022-11-01T23:44:49.056Z,15.70
2022-11-01T23:48:14.257Z,15.70
2022-11-01T23:51:39.506Z,15.70
2022-11-01T23:54:46.816Z,15.80
2022-11-01T23:57:57.263Z,15.80
